createdAt,value
2023-07-19T00:00:45.650Z,83.89
2023-07-19T00:01:52.755Z,83.96
2023-07-19T00:04:19.431Z,83.21
2023-07-19T00:05:45.703Z,83.21
2023-07-19T00:06:46.080Z,83.39
2023-07-19T00:09:12.472Z,83.05
2023-07-19T00:10:45.655Z,83.05
2023-07-19T00:11:38.844Z,83.75
2023-07-19T00:14:07.582Z,84.40
2023-07-19T00:15:45.659Z,84.40
2023-07-19T00:16:34.521Z,84.46
2023-07-19T00:19:14.257Z,85.89
2023-07-19T00:20:45.720Z,85.89
2023-07-19T00:21:46.643Z,87.17
2023-07-19T00:24:13.090Z,87.03
2023-07-19T00:25:45.692Z,87.03
2023-07-19T00:26:39.464Z,87.97
2023-07-19T00:29:05.886Z,86.98
2023-07-19T00:30:45.666Z,86.98
2023-07-19T00:31:32.416Z,86.40
2023-07-19T00:33:58.935Z,85.34
2023-07-19T00:35:45.639Z,85.34
2023-07-19T00:36:25.411Z,85.04
2023-07-19T00:38:52.193Z,85.01
2023-07-19T00:40:45.653Z,85.01
2023-07-19T00:41:19.845Z,85.72
2023-07-19T00:43:47.643Z,85.98
2023-07-19T00:45:45.660Z,85.98
2023-07-19T00:46:14.691Z,86.27
2023-07-19T00:48:42.915Z,88.64
2023-07-19T00:50:45.657Z,88.64
2023-07-19T00:51:09.894Z,89.43
2023-07-19T00:53:38.025Z,88.15
2023-07-19T00:55:45.652Z,88.15
2023-07-19T00:56:04.839Z,89.68
2023-07-19T00:58:32.262Z,90.62
2023-07-19T01:00:45.649Z,90.62
2023-07-19T01:00:59.694Z,89.89
2023-07-19T01:03:26.209Z,90.41
2023-07-19T01:05:45.720Z,90.41
2023-07-19T01:05:52.761Z,90.29
2023-07-19T01:08:19.601Z,91.04
2023-07-19T01:10:46.807Z,91.95
2023-07-19T01:10:46.952Z,91.95
2023-07-19T01:13:13.327Z,92.92
2023-07-19T01:15:41.367Z,93.78
2023-07-19T01:15:45.635Z,93.78
2023-07-19T01:18:08.162Z,94.41
2023-07-19T01:20:35.735Z,94.69
2023-07-19T01:20:45.653Z,94.69
2023-07-19T01:23:03.329Z,95.05
2023-07-19T01:25:29.849Z,96.48
2023-07-19T01:25:45.680Z,96.48
2023-07-19T01:27:56.246Z,97.75
2023-07-19T01:30:22.757Z,97.61
2023-07-19T01:30:45.634Z,97.61
2023-07-19T01:32:49.323Z,97.88
2023-07-19T01:35:16.446Z,96.92
2023-07-19T01:35:45.654Z,96.92
2023-07-19T01:37:42.950Z,96.08
2023-07-19T01:40:12.570Z,95.99
2023-07-19T01:40:45.640Z,95.99
2023-07-19T01:42:41.759Z,96.16
2023-07-19T01:45:08.884Z,96.70
2023-07-19T01:45:45.667Z,96.70
2023-07-19T01:47:35.506Z,97.47
2023-07-19T01:50:01.988Z,98.74
2023-07-19T01:50:45.654Z,98.74
2023-07-19T01:52:28.389Z,100.00
2023-07-19T01:54:54.743Z,100.00
2023-07-19T01:55:45.654Z,100.00
2023-07-19T01:57:21.175Z,100.00
2023-07-19T01:59:47.562Z,100.00
2023-07-19T02:00:45.652Z,100.00
2023-07-19T02:02:14.008Z,100.00
2023-07-19T02:04:40.593Z,100.00
2023-07-19T02:05:45.753Z,100.00
2023-07-19T02:07:07.139Z,100.00
2023-07-19T02:09:33.534Z,100.00
2023-07-19T02:10:45.679Z,100.00
2023-07-19T02:11:59.964Z,100.00
2023-07-19T02:14:26.417Z,100.00
2023-07-19T02:15:45.713Z,100.00
2023-07-19T02:16:53.278Z,100.00
2023-07-19T02:19:19.692Z,100.00
2023-07-19T02:20:45.655Z,100.00
2023-07-19T02:21:46.340Z,100.00
2023-07-19T02:24:12.725Z,100.00
2023-07-19T02:25:45.657Z,100.00
2023-07-19T02:26:39.251Z,100.00
2023-07-19T02:29:05.640Z,100.00
2023-07-19T02:30:45.678Z,100.00
2023-07-19T02:31:32.678Z,100.00
2023-07-19T02:33:59.087Z,100.00
2023-07-19T02:35:46.694Z,100.00
2023-07-19T02:36:25.509Z,100.00
2023-07-19T02:38:51.866Z,100.00
2023-07-19T02:40:45.638Z,100.00
2023-07-19T02:41:18.385Z,100.00
2023-07-19T02:43:45.253Z,100.00
2023-07-19T02:45:45.658Z,100.00
2023-07-19T02:46:11.658Z,100.00
2023-07-19T02:48:38.038Z,100.00
2023-07-19T02:50:45.658Z,100.00
2023-07-19T02:51:04.475Z,100.00
2023-07-19T02:53:30.861Z,100.00
2023-07-19T02:55:45.647Z,100.00
2023-07-19T02:55:57.337Z,100.00
2023-07-19T02:58:24.293Z,100.00
2023-07-19T03:00:45.704Z,100.00
2023-07-19T03:00:54.375Z,100.00
2023-07-19T03:03:21.229Z,100.00
2023-07-19T03:05:45.904Z,100.00
2023-07-19T03:05:47.784Z,100.00
2023-07-19T03:08:16.520Z,100.00
2023-07-19T03:10:42.957Z,100.00
2023-07-19T03:10:45.662Z,100.00
2023-07-19T03:13:10.212Z,100.00
2023-07-19T03:15:36.702Z,100.00
2023-07-19T03:15:45.671Z,100.00
2023-07-19T03:18:04.588Z,100.00
2023-07-19T03:20:32.246Z,100.00
2023-07-19T03:20:45.774Z,100.00
2023-07-19T03:22:59.402Z,100.00
2023-07-19T03:25:25.899Z,100.00
2023-07-19T03:25:45.673Z,100.00
2023-07-19T03:27:52.378Z,100.00
2023-07-19T03:30:19.092Z,100.00
2023-07-19T03:30:45.706Z,100.00
2023-07-19T03:32:47.964Z,100.00
2023-07-19T03:35:14.688Z,100.00
2023-07-19T03:35:45.657Z,100.00
2023-07-19T03:37:45.471Z,100.00
2023-07-19T03:40:15.512Z,100.00
2023-07-19T03:40:45.715Z,100.00
2023-07-19T03:42:42.226Z,100.00
2023-07-19T03:45:08.981Z,100.00
2023-07-19T03:45:45.711Z,100.00
2023-07-19T03:47:35.499Z,100.00
2023-07-19T03:50:02.053Z,100.00
2023-07-19T03:50:45.666Z,100.00
2023-07-19T03:52:28.668Z,100.00
2023-07-19T03:54:55.987Z,100.00
2023-07-19T03:55:45.686Z,100.00
2023-07-19T03:57:22.445Z,99.82
2023-07-19T03:59:48.803Z,98.72
2023-07-19T04:00:45.675Z,98.72
2023-07-19T04:02:15.319Z,98.64
2023-07-19T04:04:44.217Z,97.25
2023-07-19T04:05:45.734Z,97.25
2023-07-19T04:07:10.625Z,97.00
2023-07-19T04:09:37.029Z,96.58
2023-07-19T04:10:45.690Z,96.58
2023-07-19T04:12:03.701Z,95.20
2023-07-19T04:14:30.086Z,95.10
2023-07-19T04:15:45.680Z,95.10
2023-07-19T04:16:56.532Z,94.98
2023-07-19T04:19:23.074Z,95.18
2023-07-19T04:20:45.660Z,95.18
2023-07-19T04:21:49.706Z,94.65
2023-07-19T04:24:16.154Z,94.92
2023-07-19T04:25:45.679Z,94.92
2023-07-19T04:26:42.516Z,94.95
2023-07-19T04:29:08.881Z,94.62
2023-07-19T04:30:47.207Z,94.62
2023-07-19T04:31:35.247Z,94.32
2023-07-19T04:34:01.694Z,93.13
2023-07-19T04:35:45.667Z,93.13
2023-07-19T04:36:28.272Z,92.72
2023-07-19T04:38:54.631Z,92.30
2023-07-19T04:40:45.680Z,92.30
2023-07-19T04:41:21.267Z,91.07
2023-07-19T04:43:47.854Z,90.24
2023-07-19T04:45:45.705Z,90.24
2023-07-19T04:46:14.519Z,89.51
2023-07-19T04:48:40.951Z,90.05
2023-07-19T04:50:45.670Z,90.05
2023-07-19T04:51:07.587Z,89.99
2023-07-19T04:53:34.113Z,89.83
2023-07-19T04:55:45.668Z,89.83
2023-07-19T04:56:00.642Z,89.02
2023-07-19T04:58:27.117Z,88.94
2023-07-19T05:00:45.690Z,88.94
2023-07-19T05:00:53.508Z,88.17
2023-07-19T05:03:20.052Z,87.63
2023-07-19T05:05:48.870Z,87.49
2023-07-19T05:05:49.025Z,87.49
2023-07-19T05:08:15.365Z,87.15
2023-07-19T05:10:42.024Z,85.48
2023-07-19T05:10:45.656Z,85.48
2023-07-19T05:13:08.873Z,85.02
2023-07-19T05:15:35.948Z,85.27
2023-07-19T05:15:45.672Z,85.27
2023-07-19T05:18:02.536Z,84.91
2023-07-19T05:20:32.856Z,85.42
2023-07-19T05:20:45.686Z,85.42
2023-07-19T05:22:59.673Z,86.02
2023-07-19T05:25:26.154Z,86.37
2023-07-19T05:25:45.672Z,86.37
2023-07-19T05:27:52.540Z,86.35
2023-07-19T05:30:19.167Z,84.98
2023-07-19T05:30:45.682Z,84.98
2023-07-19T05:32:45.591Z,84.84
2023-07-19T05:35:12.146Z,84.31
2023-07-19T05:35:45.670Z,84.31
2023-07-19T05:37:40.321Z,84.59
2023-07-19T05:40:11.218Z,83.97
2023-07-19T05:40:45.696Z,83.97
2023-07-19T05:42:37.635Z,82.48
2023-07-19T05:45:04.602Z,81.01
2023-07-19T05:45:45.717Z,81.01
2023-07-19T05:47:31.379Z,80.17
2023-07-19T05:49:57.926Z,79.12
2023-07-19T05:50:45.690Z,79.12
2023-07-19T05:52:24.460Z,76.93
2023-07-19T05:54:50.858Z,75.98
2023-07-19T05:55:45.669Z,75.98
2023-07-19T05:57:17.305Z,75.58
2023-07-19T05:59:43.772Z,75.85
2023-07-19T06:00:45.726Z,75.85
2023-07-19T06:02:10.342Z,75.57
2023-07-19T06:04:36.916Z,75.70
2023-07-19T06:05:45.792Z,75.70
2023-07-19T06:07:03.762Z,75.84
2023-07-19T06:09:31.528Z,76.74
2023-07-19T06:10:45.692Z,76.74
2023-07-19T06:11:58.831Z,78.47
2023-07-19T06:14:25.530Z,79.47
2023-07-19T06:15:45.699Z,79.47
2023-07-19T06:16:51.983Z,79.27
2023-07-19T06:19:20.779Z,79.15
2023-07-19T06:20:45.695Z,79.15
2023-07-19T06:21:47.540Z,79.47
2023-07-19T06:24:14.095Z,80.04
2023-07-19T06:25:45.685Z,80.04
2023-07-19T06:26:40.490Z,80.00
2023-07-19T06:29:06.968Z,79.86
2023-07-19T06:30:45.731Z,79.86
2023-07-19T06:31:33.564Z,79.06
2023-07-19T06:34:00.003Z,78.41
2023-07-19T06:35:45.719Z,78.41
2023-07-19T06:36:27.780Z,77.17
2023-07-19T06:38:54.352Z,76.05
2023-07-19T06:40:45.704Z,76.05
2023-07-19T06:41:21.034Z,75.82
2023-07-19T06:43:47.911Z,76.92
2023-07-19T06:45:45.688Z,76.92
2023-07-19T06:46:14.296Z,75.51
2023-07-19T06:48:40.655Z,75.04
2023-07-19T06:50:45.696Z,75.04
2023-07-19T06:51:07.153Z,75.77
2023-07-19T06:53:33.565Z,75.49
2023-07-19T06:55:45.681Z,75.49
2023-07-19T06:56:00.644Z,75.06
2023-07-19T06:58:27.344Z,74.59
2023-07-19T07:00:45.703Z,74.59
2023-07-19T07:00:58.159Z,73.75
2023-07-19T07:03:25.284Z,73.96
2023-07-19T07:05:45.760Z,73.96
2023-07-19T07:05:51.837Z,72.56
2023-07-19T07:08:20.318Z,71.88
2023-07-19T07:10:46.649Z,72.72
2023-07-19T07:10:46.781Z,72.72
2023-07-19T07:13:13.134Z,72.73
2023-07-19T07:15:39.548Z,73.94
2023-07-19T07:15:45.683Z,73.94
2023-07-19T07:18:05.951Z,75.26
2023-07-19T07:20:35.964Z,77.79
2023-07-19T07:20:45.685Z,77.79
2023-07-19T07:23:03.007Z,78.37
2023-07-19T07:25:31.113Z,81.45
2023-07-19T07:25:45.802Z,81.45
2023-07-19T07:27:58.588Z,83.07
2023-07-19T07:30:24.987Z,84.20
2023-07-19T07:30:45.689Z,84.20
2023-07-19T07:32:51.443Z,85.15
2023-07-19T07:35:17.929Z,86.53
2023-07-19T07:35:45.670Z,86.53
2023-07-19T07:37:44.346Z,83.19
2023-07-19T07:40:13.555Z,79.27
2023-07-19T07:40:45.663Z,79.27
2023-07-19T07:42:42.338Z,78.43
2023-07-19T07:45:09.336Z,76.87
2023-07-19T07:45:45.678Z,76.87
2023-07-19T07:47:36.188Z,73.96
2023-07-19T07:50:04.614Z,74.29
2023-07-19T07:50:45.701Z,74.29
2023-07-19T07:52:31.654Z,74.63
2023-07-19T07:54:58.134Z,73.70
2023-07-19T07:55:45.674Z,73.70
2023-07-19T07:57:24.534Z,72.40
2023-07-19T07:59:51.025Z,74.33
2023-07-19T08:00:45.797Z,74.33
2023-07-19T08:02:17.483Z,74.02
2023-07-19T08:04:44.102Z,71.47
2023-07-19T08:05:45.806Z,71.47
2023-07-19T08:07:10.528Z,72.64
2023-07-19T08:09:36.889Z,72.32
2023-07-19T08:10:45.682Z,72.32
2023-07-19T08:12:03.547Z,71.30
2023-07-19T08:14:29.948Z,70.53
2023-07-19T08:15:45.691Z,70.53
2023-07-19T08:16:56.382Z,70.22
2023-07-19T08:19:22.754Z,69.20
2023-07-19T08:20:45.691Z,69.20
2023-07-19T08:21:49.201Z,68.30
2023-07-19T08:24:15.757Z,66.89
2023-07-19T08:25:45.836Z,66.89
2023-07-19T08:26:42.206Z,67.68
2023-07-19T08:29:08.637Z,66.77
2023-07-19T08:30:45.722Z,66.77
2023-07-19T08:31:35.721Z,67.96
2023-07-19T08:34:02.351Z,67.48
2023-07-19T08:35:45.706Z,67.48
2023-07-19T08:36:31.024Z,71.36
2023-07-19T08:38:57.878Z,72.78
2023-07-19T08:40:45.716Z,72.78
2023-07-19T08:41:29.240Z,75.61
2023-07-19T08:43:56.253Z,77.21
2023-07-19T08:45:45.686Z,77.21
2023-07-19T08:46:23.387Z,75.44
2023-07-19T08:48:50.053Z,73.85
2023-07-19T08:50:45.692Z,73.85
2023-07-19T08:51:17.883Z,74.19
2023-07-19T08:53:45.658Z,75.68
2023-07-19T08:55:45.690Z,75.68
2023-07-19T08:56:13.116Z,68.89
2023-07-19T08:58:41.153Z,68.01
2023-07-19T09:00:47.440Z,68.01
2023-07-19T09:01:08.317Z,66.70
2023-07-19T09:03:35.249Z,65.90
2023-07-19T09:05:45.802Z,65.90
2023-07-19T09:06:02.513Z,65.27
2023-07-19T09:08:39.169Z,66.10
2023-07-19T09:10:45.687Z,66.10
2023-07-19T09:11:05.925Z,64.13
2023-07-19T09:13:35.913Z,65.40
2023-07-19T09:15:45.678Z,65.40
2023-07-19T09:16:04.892Z,64.27
2023-07-19T09:18:38.822Z,62.09
2023-07-19T09:20:45.705Z,62.09
2023-07-19T09:21:06.156Z,62.05
2023-07-19T09:23:39.677Z,61.29
2023-07-19T09:25:45.700Z,61.29
2023-07-19T09:26:07.048Z,60.32
2023-07-19T09:28:36.790Z,60.99
2023-07-19T09:30:45.712Z,60.99
2023-07-19T09:33:34.634Z,59.69
2023-07-19T09:35:46.275Z,59.69
2023-07-19T09:36:01.023Z,60.53
2023-07-19T09:38:27.529Z,60.13
2023-07-19T09:40:45.707Z,60.13
2023-07-19T09:40:55.350Z,58.33
2023-07-19T09:43:22.425Z,55.88
2023-07-19T09:45:45.711Z,55.88
2023-07-19T09:45:50.310Z,58.67
2023-07-19T09:48:17.607Z,57.39
2023-07-19T09:50:46.727Z,55.61
2023-07-19T09:50:46.846Z,55.61
2023-07-19T09:53:14.586Z,54.91
2023-07-19T09:55:41.353Z,53.40
2023-07-19T09:55:45.680Z,53.40
2023-07-19T09:58:12.315Z,52.42
2023-07-19T10:00:40.255Z,52.99
2023-07-19T10:00:45.703Z,52.99
2023-07-19T10:03:08.566Z,53.59
2023-07-19T10:05:35.660Z,52.82
2023-07-19T10:05:45.865Z,52.82
2023-07-19T10:08:05.084Z,51.98
2023-07-19T10:10:42.903Z,52.11
2023-07-19T10:10:45.695Z,52.11
2023-07-19T10:13:09.938Z,51.17
2023-07-19T10:15:36.915Z,50.45
2023-07-19T10:15:45.671Z,50.45
2023-07-19T10:18:11.026Z,50.50
2023-07-19T10:20:37.550Z,50.04
2023-07-19T10:20:45.707Z,50.04
2023-07-19T10:23:14.724Z,48.53
2023-07-19T10:25:50.459Z,47.83
2023-07-19T10:25:50.610Z,47.83
2023-07-19T10:28:33.127Z,47.32
2023-07-19T10:30:45.680Z,47.32
2023-07-19T10:31:10.282Z,47.11
2023-07-19T10:33:46.991Z,46.07
2023-07-19T10:35:45.718Z,46.07
2023-07-19T10:36:14.992Z,46.23
2023-07-19T10:38:41.480Z,46.50
2023-07-19T10:40:45.712Z,46.50
2023-07-19T10:41:10.037Z,45.89
2023-07-19T10:45:45.746Z,46.04
2023-07-19T10:46:07.805Z,45.18
2023-07-19T10:48:41.547Z,44.80
2023-07-19T10:50:45.689Z,44.80
2023-07-19T10:51:09.124Z,45.12
2023-07-19T10:53:47.267Z,44.59
2023-07-19T10:55:53.566Z,44.59
2023-07-19T10:56:15.770Z,43.58
2023-07-19T10:58:43.817Z,42.81
2023-07-19T11:00:45.741Z,42.81
2023-07-19T11:01:10.387Z,42.73
2023-07-19T11:03:37.000Z,42.35
2023-07-19T11:05:45.723Z,42.35
2023-07-19T11:06:07.505Z,44.03
2023-07-19T11:08:33.940Z,42.90
2023-07-19T11:10:45.694Z,42.90
2023-07-19T11:11:00.465Z,42.84
2023-07-19T11:13:27.534Z,43.58
2023-07-19T11:15:45.709Z,43.58
2023-07-19T11:16:02.063Z,43.63
2023-07-19T11:18:30.680Z,42.23
2023-07-19T11:20:47.705Z,42.23
2023-07-19T11:20:58.852Z,42.04
2023-07-19T11:23:26.748Z,41.10
2023-07-19T11:25:45.699Z,41.10
2023-07-19T11:26:04.080Z,41.61
2023-07-19T11:28:43.127Z,41.71
2023-07-19T11:30:45.781Z,41.71
2023-07-19T11:31:11.529Z,41.29
2023-07-19T11:33:40.550Z,41.82
2023-07-19T11:35:45.709Z,41.82
2023-07-19T11:36:09.026Z,42.02
2023-07-19T11:38:39.036Z,42.04
2023-07-19T11:40:45.738Z,42.04
2023-07-19T11:41:05.596Z,43.18
2023-07-19T11:43:32.421Z,41.34
2023-07-19T11:45:45.736Z,41.34
2023-07-19T11:45:58.884Z,41.01
2023-07-19T11:48:27.782Z,41.61
2023-07-19T11:50:45.795Z,41.61
2023-07-19T11:50:55.204Z,40.63
2023-07-19T11:53:21.618Z,40.60
2023-07-19T11:55:45.792Z,40.60
2023-07-19T11:55:48.732Z,41.66
2023-07-19T11:58:15.123Z,41.51
2023-07-19T12:00:41.669Z,41.46
2023-07-19T12:00:45.848Z,41.46
2023-07-19T12:03:08.298Z,40.76
2023-07-19T12:05:35.397Z,43.32
2023-07-19T12:05:45.860Z,43.32
2023-07-19T12:08:04.014Z,42.54
2023-07-19T12:10:31.061Z,43.37
2023-07-19T12:10:45.844Z,43.37
2023-07-19T12:12:58.712Z,43.78
2023-07-19T12:15:26.981Z,44.20
2023-07-19T12:15:45.929Z,44.20
2023-07-19T12:17:56.197Z,43.29
2023-07-19T12:20:22.691Z,43.22
2023-07-19T12:20:45.903Z,43.22
2023-07-19T12:22:50.064Z,43.61
2023-07-19T12:25:16.578Z,43.32
2023-07-19T12:25:45.906Z,43.32
2023-07-19T12:27:43.425Z,43.20
2023-07-19T12:30:11.287Z,42.76
2023-07-19T12:30:45.963Z,42.76
2023-07-19T12:32:39.576Z,42.18
2023-07-19T12:35:06.368Z,41.83
2023-07-19T12:35:45.955Z,41.83
2023-07-19T12:37:34.384Z,41.37
2023-07-19T12:40:00.737Z,41.98
2023-07-19T12:40:45.951Z,41.98
2023-07-19T12:42:29.062Z,43.03
2023-07-19T12:44:55.510Z,42.17
2023-07-19T12:45:45.966Z,42.17
2023-07-19T12:47:21.923Z,43.00
2023-07-19T12:49:48.329Z,42.81
2023-07-19T12:50:46.008Z,42.81
2023-07-19T12:52:16.864Z,42.63
2023-07-19T12:54:43.271Z,41.93
2023-07-19T12:55:45.995Z,41.93
2023-07-19T12:57:09.680Z,40.70
2023-07-19T12:59:36.355Z,40.15
2023-07-19T13:00:46.061Z,40.15
2023-07-19T13:02:03.466Z,39.74
2023-07-19T13:04:30.530Z,40.48
2023-07-19T13:05:46.097Z,40.48
2023-07-19T13:06:58.939Z,40.81
2023-07-19T13:09:25.340Z,40.39
2023-07-19T13:10:46.073Z,40.39
2023-07-19T13:11:51.918Z,40.76
2023-07-19T13:14:18.374Z,40.41
2023-07-19T13:15:46.162Z,40.41
2023-07-19T13:16:44.907Z,41.33
2023-07-19T13:19:12.479Z,41.18
2023-07-19T13:20:46.098Z,41.18
2023-07-19T13:21:38.958Z,41.02
2023-07-19T13:24:05.845Z,40.55
2023-07-19T13:25:46.167Z,40.55
2023-07-19T13:26:32.531Z,39.46
2023-07-19T13:29:01.354Z,39.64
2023-07-19T13:30:46.153Z,39.64
2023-07-19T13:31:28.891Z,40.09
2023-07-19T13:33:57.730Z,40.30
2023-07-19T13:36:29.564Z,39.87
2023-07-19T13:38:57.264Z,40.24
2023-07-19T13:40:46.185Z,40.24
2023-07-19T13:41:24.669Z,39.29
2023-07-19T13:43:54.463Z,38.60
2023-07-19T13:45:46.190Z,38.60
2023-07-19T13:46:23.345Z,38.48
2023-07-19T13:48:50.708Z,38.62
2023-07-19T13:50:46.232Z,38.62
2023-07-19T13:51:17.198Z,39.83
2023-07-19T13:53:43.892Z,39.85
2023-07-19T13:55:46.264Z,39.85
2023-07-19T13:56:11.663Z,39.67
2023-07-19T13:58:39.780Z,39.15
2023-07-19T14:00:46.316Z,39.15
2023-07-19T14:01:06.452Z,39.61
2023-07-19T14:03:33.110Z,39.26
2023-07-19T14:05:46.393Z,39.26
2023-07-19T14:05:59.465Z,39.28
2023-07-19T14:08:25.851Z,39.82
2023-07-19T14:10:46.332Z,39.82
2023-07-19T14:10:52.534Z,39.63
2023-07-19T14:15:47.070Z,40.28
2023-07-19T14:15:48.392Z,39.87
2023-07-19T14:18:16.243Z,39.81
2023-07-19T14:20:42.801Z,40.70
2023-07-19T14:20:46.352Z,40.70
2023-07-19T14:23:09.331Z,40.21
2023-07-19T14:25:37.983Z,40.93
2023-07-19T14:25:46.418Z,40.93
2023-07-19T14:28:04.593Z,40.92
2023-07-19T14:30:31.032Z,41.06
2023-07-19T14:30:46.414Z,41.06
2023-07-19T14:32:57.439Z,40.64
2023-07-19T14:35:23.925Z,40.39
2023-07-19T14:35:46.458Z,40.39
2023-07-19T14:37:50.393Z,40.78
2023-07-19T14:40:16.801Z,41.19
2023-07-19T14:40:46.531Z,41.19
2023-07-19T14:42:43.644Z,41.59
2023-07-19T14:45:10.406Z,41.35
2023-07-19T14:45:46.498Z,41.35
2023-07-19T14:47:38.789Z,41.35
2023-07-19T14:50:06.794Z,41.60
2023-07-19T14:50:56.177Z,41.60
2023-07-19T14:52:33.274Z,41.53
2023-07-19T14:55:08.768Z,41.71
2023-07-19T14:55:46.375Z,41.71
2023-07-19T14:57:35.126Z,42.56
2023-07-19T15:00:11.497Z,41.69
2023-07-19T15:02:39.646Z,42.80
2023-07-19T15:05:06.568Z,43.42
2023-07-19T15:05:47.323Z,43.42
2023-07-19T15:07:33.082Z,43.61
2023-07-19T15:09:59.603Z,44.54
2023-07-19T15:10:46.469Z,44.54
2023-07-19T15:12:26.577Z,44.67
2023-07-19T15:14:53.492Z,44.05
2023-07-19T15:15:46.384Z,44.05
2023-07-19T15:17:19.987Z,44.24
2023-07-19T15:19:46.457Z,44.50
2023-07-19T15:20:46.737Z,44.50
2023-07-19T15:22:12.981Z,44.77
2023-07-19T15:24:40.494Z,43.54
2023-07-19T15:25:46.380Z,43.54
2023-07-19T15:27:09.172Z,44.21
2023-07-19T15:29:36.618Z,44.35
2023-07-19T15:30:46.429Z,44.35
2023-07-19T15:32:03.289Z,44.59
2023-07-19T15:34:29.784Z,44.63
2023-07-19T15:35:46.393Z,44.63
2023-07-19T15:36:56.247Z,44.63
2023-07-19T15:39:23.880Z,44.59
2023-07-19T15:40:46.380Z,44.59
2023-07-19T15:41:51.858Z,44.76
2023-07-19T15:44:34.454Z,45.11
2023-07-19T15:45:46.459Z,45.11
2023-07-19T15:47:03.560Z,44.94
2023-07-19T15:49:29.908Z,45.48
2023-07-19T15:50:48.040Z,45.48
2023-07-19T15:51:58.378Z,46.43
2023-07-19T15:54:24.824Z,46.73
2023-07-19T15:55:46.391Z,46.73
2023-07-19T15:56:51.311Z,47.36
2023-07-19T15:59:17.824Z,46.59
2023-07-19T16:00:46.402Z,46.59
2023-07-19T16:01:44.581Z,46.97
2023-07-19T16:04:11.095Z,46.61
2023-07-19T16:05:46.502Z,46.61
2023-07-19T16:06:37.496Z,46.82
2023-07-19T16:09:03.963Z,46.96
2023-07-19T16:10:46.518Z,46.96
2023-07-19T16:11:30.632Z,46.92
2023-07-19T16:13:58.159Z,46.87
2023-07-19T16:15:46.407Z,46.87
2023-07-19T16:16:27.998Z,47.56
2023-07-19T16:18:54.448Z,48.09
2023-07-19T16:20:46.392Z,48.09
2023-07-19T16:21:25.058Z,48.94
2023-07-19T16:23:51.552Z,50.71
2023-07-19T16:25:46.386Z,50.71
2023-07-19T16:26:17.906Z,51.59
2023-07-19T16:28:44.280Z,52.44
2023-07-19T16:30:46.461Z,52.44
2023-07-19T16:31:14.366Z,52.42
2023-07-19T16:33:40.980Z,52.30
2023-07-19T16:35:46.385Z,52.30
2023-07-19T16:36:07.457Z,51.82
2023-07-19T16:38:33.941Z,50.27
2023-07-19T16:40:46.397Z,50.27
2023-07-19T16:41:00.408Z,51.16
2023-07-19T16:43:26.884Z,52.08
2023-07-19T16:45:46.391Z,52.08
2023-07-19T16:45:53.491Z,52.96
2023-07-19T16:48:21.910Z,52.86
2023-07-19T16:50:46.377Z,52.86
2023-07-19T16:50:48.771Z,52.41
2023-07-19T16:53:18.095Z,53.95
2023-07-19T16:55:46.438Z,53.96
2023-07-19T16:55:46.594Z,53.96
2023-07-19T16:58:13.284Z,52.38
2023-07-19T17:00:40.854Z,52.68
2023-07-19T17:00:46.417Z,52.68
2023-07-19T17:03:09.144Z,52.68
2023-07-19T17:05:35.988Z,52.32
2023-07-19T17:05:46.471Z,52.32
2023-07-19T17:08:04.621Z,51.19
2023-07-19T17:10:35.856Z,51.05
2023-07-19T17:10:46.386Z,51.05
2023-07-19T17:13:07.156Z,50.59
2023-07-19T17:15:36.899Z,50.80
2023-07-19T17:15:46.396Z,50.80
2023-07-19T17:18:06.103Z,48.61
2023-07-19T17:20:34.584Z,50.03
2023-07-19T17:20:46.510Z,50.03
2023-07-19T17:23:01.303Z,49.58
2023-07-19T17:25:27.788Z,48.86
2023-07-19T17:25:46.426Z,48.86
2023-07-19T17:27:54.170Z,49.34
2023-07-19T17:30:20.555Z,49.37
2023-07-19T17:30:46.423Z,49.37
2023-07-19T17:32:49.020Z,49.72
2023-07-19T17:35:15.930Z,50.34
2023-07-19T17:35:46.428Z,50.34
2023-07-19T17:37:42.433Z,50.58
2023-07-19T17:40:10.349Z,50.85
2023-07-19T17:40:46.394Z,50.85
2023-07-19T17:42:37.739Z,50.25
2023-07-19T17:45:04.528Z,49.68
2023-07-19T17:45:46.394Z,49.68
2023-07-19T17:47:31.328Z,49.70
2023-07-19T17:49:58.159Z,49.63
2023-07-19T17:50:46.402Z,49.63
2023-07-19T17:52:24.909Z,50.53
2023-07-19T17:54:54.145Z,50.91
2023-07-19T17:55:46.406Z,50.91
2023-07-19T17:57:21.565Z,50.71
2023-07-19T17:59:47.979Z,52.34
2023-07-19T18:00:46.398Z,52.34
2023-07-19T18:02:14.561Z,52.24
2023-07-19T18:04:42.881Z,53.21
2023-07-19T18:05:46.487Z,53.21
2023-07-19T18:07:09.356Z,53.28
2023-07-19T18:09:35.849Z,54.06
2023-07-19T18:10:46.416Z,54.06
2023-07-19T18:12:02.792Z,53.94
2023-07-19T18:14:29.828Z,53.92
2023-07-19T18:15:46.402Z,53.92
2023-07-19T18:16:56.213Z,54.50
2023-07-19T18:19:22.824Z,55.64
2023-07-19T18:20:46.423Z,55.64
2023-07-19T18:22:03.069Z,55.09
2023-07-19T18:24:32.380Z,56.13
2023-07-19T18:25:46.402Z,56.13
2023-07-19T18:26:59.680Z,55.96
2023-07-19T18:29:27.079Z,55.64
2023-07-19T18:30:46.519Z,55.64
2023-07-19T18:31:53.735Z,55.79
2023-07-19T18:34:20.785Z,56.21
2023-07-19T18:35:46.412Z,56.21
2023-07-19T18:36:47.315Z,56.35
2023-07-19T18:39:14.117Z,56.79
2023-07-19T18:40:46.409Z,56.79
2023-07-19T18:41:40.503Z,56.73
2023-07-19T18:44:07.270Z,56.62
2023-07-19T18:45:46.383Z,56.62
2023-07-19T18:46:33.717Z,56.51
2023-07-19T18:49:00.206Z,56.78
2023-07-19T18:50:46.422Z,56.78
2023-07-19T18:51:26.645Z,56.55
2023-07-19T18:53:53.221Z,56.92
2023-07-19T18:55:46.399Z,56.92
2023-07-19T18:56:23.501Z,56.78
2023-07-19T18:58:51.376Z,57.30
2023-07-19T19:00:46.434Z,57.30
2023-07-19T19:01:18.556Z,57.56
2023-07-19T19:03:47.347Z,57.72
2023-07-19T19:05:46.486Z,57.72
2023-07-19T19:06:13.881Z,58.06
2023-07-19T19:08:40.433Z,58.11
2023-07-19T19:10:46.445Z,58.11
2023-07-19T19:11:06.874Z,59.06
2023-07-19T19:13:33.351Z,59.29
2023-07-19T19:15:46.428Z,59.29
2023-07-19T19:16:02.414Z,58.83
2023-07-19T19:18:28.940Z,58.87
2023-07-19T19:20:46.414Z,58.87
2023-07-19T19:20:55.560Z,59.62
2023-07-19T19:23:22.087Z,59.63
2023-07-19T19:25:46.394Z,59.63
2023-07-19T19:25:48.967Z,60.09
2023-07-19T19:28:18.195Z,60.68
2023-07-19T19:30:44.818Z,60.78
2023-07-19T19:30:46.454Z,60.78
2023-07-19T19:33:11.510Z,61.13
2023-07-19T19:35:41.684Z,61.26
2023-07-19T19:35:46.432Z,61.26
2023-07-19T19:38:08.128Z,61.99
2023-07-19T19:40:34.536Z,62.21
2023-07-19T19:40:46.394Z,62.21
2023-07-19T19:43:01.172Z,63.07
2023-07-19T19:45:27.589Z,63.01
2023-07-19T19:45:48.429Z,63.01
2023-07-19T19:47:53.969Z,64.05
2023-07-19T19:50:20.503Z,64.18
2023-07-19T19:50:46.520Z,64.18
2023-07-19T19:52:55.333Z,64.58
2023-07-19T19:55:48.800Z,64.73
2023-07-19T19:58:09.093Z,64.64
2023-07-19T20:00:35.908Z,64.98
2023-07-19T20:00:46.403Z,64.98
2023-07-19T20:08:01.314Z,65.56
2023-07-19T20:10:27.744Z,65.43
2023-07-19T20:12:54.777Z,65.59
2023-07-19T20:15:21.904Z,66.22
2023-07-19T20:15:46.404Z,66.22
2023-07-19T20:17:48.380Z,66.15
2023-07-19T20:20:22.628Z,66.32
2023-07-19T20:20:46.398Z,66.32
2023-07-19T20:22:50.708Z,66.42
2023-07-19T20:25:29.043Z,66.35
2023-07-19T20:25:52.573Z,66.35
2023-07-19T20:28:03.668Z,66.94
2023-07-19T20:30:30.205Z,66.90
2023-07-19T20:32:56.802Z,67.10
2023-07-19T20:37:52.862Z,68.00
2023-07-19T20:42:51.051Z,68.89
2023-07-19T20:45:23.879Z,69.41
2023-07-19T20:45:46.439Z,69.41
2023-07-19T20:47:52.740Z,69.73
2023-07-19T20:50:19.128Z,70.16
2023-07-19T20:50:46.395Z,70.16
2023-07-19T20:52:45.602Z,70.93
2023-07-19T20:55:12.116Z,70.23
2023-07-19T20:55:46.414Z,70.23
2023-07-19T20:57:38.548Z,70.81
2023-07-19T21:00:06.074Z,71.60
2023-07-19T21:00:46.407Z,71.60
2023-07-19T21:02:32.594Z,72.10
2023-07-19T21:04:59.079Z,72.30
2023-07-19T21:05:46.431Z,72.30
2023-07-19T21:07:25.508Z,72.55
2023-07-19T21:09:51.895Z,73.58
2023-07-19T21:10:46.400Z,73.58
2023-07-19T21:12:18.764Z,73.59
2023-07-19T21:14:45.147Z,74.14
2023-07-19T21:15:46.424Z,74.14
2023-07-19T21:17:11.500Z,74.75
2023-07-19T21:19:37.869Z,74.79
2023-07-19T21:20:46.419Z,74.79
2023-07-19T21:22:04.517Z,75.51
2023-07-19T21:24:30.900Z,76.21
2023-07-19T21:25:46.447Z,76.21
2023-07-19T21:26:57.234Z,77.08
2023-07-19T21:29:28.585Z,77.31
2023-07-19T21:30:46.403Z,77.31
2023-07-19T21:31:57.984Z,77.98
2023-07-19T21:34:24.455Z,78.19
2023-07-19T21:35:46.431Z,78.19